sensor_id;sensor_type;location;lat;lon;timestamp;P1;durP1;ratioP1;P2;durP2;ratioP2
52742;SDS011;55583;53.012;6.556;2022-07-21T00:02:22;14.98;;;7.53;;
52742;SDS011;55583;53.012;6.556;2022-07-21T00:04:47;14.40;;;8.18;;
52742;SDS011;55583;53.012;6.556;2022-07-21T00:07:13;17.48;;;7.63;;
52742;SDS011;55583;53.012;6.556;2022-07-21T00:09:38;17.48;;;7.82;;
52742;SDS011;55583;53.012;6.556;2022-07-21T00:12:04;14.65;;;7.88;;
52742;SDS011;55583;53.012;6.556;2022-07-21T00:14:30;12.18;;;8.30;;
52742;SDS011;55583;53.012;6.556;2022-07-21T00:16:56;16.63;;;7.88;;
52742;SDS011;55583;53.012;6.556;2022-07-21T00:19:22;18.33;;;8.70;;
52742;SDS011;55583;53.012;6.556;2022-07-21T00:21:47;21.63;;;9.73;;
52742;SDS011;55583;53.012;6.556;2022-07-21T00:24:13;14.57;;;8.68;;
52742;SDS011;55583;53.012;6.556;2022-07-21T00:26:39;18.75;;;8.73;;
52742;SDS011;55583;53.012;6.556;2022-07-21T00:29:04;13.40;;;9.07;;
52742;SDS011;55583;53.012;6.556;2022-07-21T00:31:30;16.40;;;9.18;;
52742;SDS011;55583;53.012;6.556;2022-07-21T00:33:56;18.38;;;11.25;;
52742;SDS011;55583;53.012;6.556;2022-07-21T00:36:21;20.13;;;9.52;;
52742;SDS011;55583;53.012;6.556;2022-07-21T00:38:47;21.17;;;11.02;;
52742;SDS011;55583;53.012;6.556;2022-07-21T00:41:13;22.88;;;12.55;;
52742;SDS011;55583;53.012;6.556;2022-07-21T00:43:39;23.08;;;13.35;;
52742;SDS011;55583;53.012;6.556;2022-07-21T00:46:06;23.00;;;13.43;;
52742;SDS011;55583;53.012;6.556;2022-07-21T00:48:32;23.83;;;12.35;;
52742;SDS011;55583;53.012;6.556;2022-07-21T00:50:57;29.05;;;14.50;;
52742;SDS011;55583;53.012;6.556;2022-07-21T00:53:24;28.55;;;14.65;;
52742;SDS011;55583;53.012;6.556;2022-07-21T00:55:49;28.67;;;14.15;;
52742;SDS011;55583;53.012;6.556;2022-07-21T00:58:15;24.67;;;14.55;;
52742;SDS011;55583;53.012;6.556;2022-07-21T01:00:41;28.50;;;14.68;;
52742;SDS011;55583;53.012;6.556;2022-07-21T01:03:07;20.83;;;14.77;;
52742;SDS011;55583;53.012;6.556;2022-07-21T01:05:33;27.63;;;16.73;;
52742;SDS011;55583;53.012;6.556;2022-07-21T01:07:59;28.27;;;16.98;;
52742;SDS011;55583;53.012;6.556;2022-07-21T01:10:28;30.42;;;17.73;;
52742;SDS011;55583;53.012;6.556;2022-07-21T01:12:54;32.60;;;19.08;;
52742;SDS011;55583;53.012;6.556;2022-07-21T01:15:21;28.20;;;17.70;;
52742;SDS011;55583;53.012;6.556;2022-07-21T01:17:47;40.90;;;19.63;;
52742;SDS011;55583;53.012;6.556;2022-07-21T01:20:14;33.85;;;20.08;;
52742;SDS011;55583;53.012;6.556;2022-07-21T01:22:43;37.78;;;20.13;;
52742;SDS011;55583;53.012;6.556;2022-07-21T01:25:12;33.55;;;18.60;;
52742;SDS011;55583;53.012;6.556;2022-07-21T01:27:38;33.22;;;17.95;;
52742;SDS011;55583;53.012;6.556;2022-07-21T01:30:04;31.48;;;18.58;;
52742;SDS011;55583;53.012;6.556;2022-07-21T01:32:33;26.95;;;18.63;;
52742;SDS011;55583;53.012;6.556;2022-07-21T01:35:00;33.28;;;20.50;;
52742;SDS011;55583;53.012;6.556;2022-07-21T01:37:27;35.50;;;21.02;;
52742;SDS011;55583;53.012;6.556;2022-07-21T01:39:54;42.88;;;21.73;;
52742;SDS011;55583;53.012;6.556;2022-07-21T01:42:38;39.67;;;21.13;;
52742;SDS011;55583;53.012;6.556;2022-07-21T01:45:04;33.85;;;20.60;;
52742;SDS011;55583;53.012;6.556;2022-07-21T01:47:31;68.05;;;24.00;;
52742;SDS011;55583;53.012;6.556;2022-07-21T01:49:56;43.35;;;23.10;;
52742;SDS011;55583;53.012;6.556;2022-07-21T01:52:22;49.00;;;26.25;;
52742;SDS011;55583;53.012;6.556;2022-07-21T01:54:48;76.38;;;31.40;;
52742;SDS011;55583;53.012;6.556;2022-07-21T01:57:14;80.38;;;29.98;;
52742;SDS011;55583;53.012;6.556;2022-07-21T01:59:40;65.35;;;27.38;;
52742;SDS011;55583;53.012;6.556;2022-07-21T02:02:05;73.13;;;28.00;;
52742;SDS011;55583;53.012;6.556;2022-07-21T02:04:31;87.90;;;29.45;;
52742;SDS011;55583;53.012;6.556;2022-07-21T02:06:59;88.80;;;33.25;;
52742;SDS011;55583;53.012;6.556;2022-07-21T02:09:25;107.70;;;36.90;;
52742;SDS011;55583;53.012;6.556;2022-07-21T02:11:51;189.50;;;43.85;;
52742;SDS011;55583;53.012;6.556;2022-07-21T02:14:16;87.50;;;31.77;;
52742;SDS011;55583;53.012;6.556;2022-07-21T02:16:42;116.20;;;33.90;;
52742;SDS011;55583;53.012;6.556;2022-07-21T02:19:08;64.80;;;30.27;;
52742;SDS011;55583;53.012;6.556;2022-07-21T02:21:34;93.55;;;32.80;;
52742;SDS011;55583;53.012;6.556;2022-07-21T02:24:00;61.75;;;28.42;;
52742;SDS011;55583;53.012;6.556;2022-07-21T02:26:25;109.20;;;32.08;;
52742;SDS011;55583;53.012;6.556;2022-07-21T02:28:51;57.90;;;27.08;;
52742;SDS011;55583;53.012;6.556;2022-07-21T02:31:17;79.25;;;32.05;;
52742;SDS011;55583;53.012;6.556;2022-07-21T02:33:42;88.80;;;32.95;;
52742;SDS011;55583;53.012;6.556;2022-07-21T02:36:08;50.00;;;27.23;;
52742;SDS011;55583;53.012;6.556;2022-07-21T02:38:34;135.02;;;39.53;;
52742;SDS011;55583;53.012;6.556;2022-07-21T02:41:00;50.90;;;26.00;;
52742;SDS011;55583;53.012;6.556;2022-07-21T02:43:25;83.20;;;30.55;;
52742;SDS011;55583;53.012;6.556;2022-07-21T02:45:51;76.07;;;33.30;;
52742;SDS011;55583;53.012;6.556;2022-07-21T02:50:44;85.28;;;31.98;;
52742;SDS011;55583;53.012;6.556;2022-07-21T02:53:11;107.00;;;35.60;;
52742;SDS011;55583;53.012;6.556;2022-07-21T02:55:39;68.95;;;27.73;;
52742;SDS011;55583;53.012;6.556;2022-07-21T03:01:04;65.95;;;30.70;;
52742;SDS011;55583;53.012;6.556;2022-07-21T03:03:34;69.68;;;30.73;;
52742;SDS011;55583;53.012;6.556;2022-07-21T03:06:02;68.72;;;32.50;;
52742;SDS011;55583;53.012;6.556;2022-07-21T03:08:28;57.80;;;29.40;;
52742;SDS011;55583;53.012;6.556;2022-07-21T03:10:54;84.45;;;34.45;;
52742;SDS011;55583;53.012;6.556;2022-07-21T03:13:20;49.45;;;30.08;;
52742;SDS011;55583;53.012;6.556;2022-07-21T03:15:46;69.65;;;30.52;;
52742;SDS011;55583;53.012;6.556;2022-07-21T03:18:12;61.97;;;31.58;;
52742;SDS011;55583;53.012;6.556;2022-07-21T03:20:39;73.97;;;32.65;;
52742;SDS011;55583;53.012;6.556;2022-07-21T03:23:06;88.28;;;38.45;;
52742;SDS011;55583;53.012;6.556;2022-07-21T03:25:32;49.60;;;28.40;;
52742;SDS011;55583;53.012;6.556;2022-07-21T03:27:58;49.50;;;28.02;;
52742;SDS011;55583;53.012;6.556;2022-07-21T03:30:24;75.07;;;33.03;;
52742;SDS011;55583;53.012;6.556;2022-07-21T03:32:49;65.05;;;31.58;;
52742;SDS011;55583;53.012;6.556;2022-07-21T03:35:15;78.00;;;35.97;;
52742;SDS011;55583;53.012;6.556;2022-07-21T03:37:43;71.97;;;31.67;;
52742;SDS011;55583;53.012;6.556;2022-07-21T03:40:10;63.30;;;29.45;;
52742;SDS011;55583;53.012;6.556;2022-07-21T03:42:38;64.97;;;31.75;;
52742;SDS011;55583;53.012;6.556;2022-07-21T03:45:04;46.45;;;27.63;;
52742;SDS011;55583;53.012;6.556;2022-07-21T03:47:31;80.55;;;29.63;;
52742;SDS011;55583;53.012;6.556;2022-07-21T03:49:57;82.68;;;37.10;;
52742;SDS011;55583;53.012;6.556;2022-07-21T03:52:22;55.35;;;29.88;;
52742;SDS011;55583;53.012;6.556;2022-07-21T03:54:48;48.72;;;29.05;;
52742;SDS011;55583;53.012;6.556;2022-07-21T03:57:13;88.00;;;37.35;;
52742;SDS011;55583;53.012;6.556;2022-07-21T03:59:39;72.15;;;33.50;;
52742;SDS011;55583;53.012;6.556;2022-07-21T04:02:05;82.90;;;32.50;;
52742;SDS011;55583;53.012;6.556;2022-07-21T04:04:31;43.70;;;26.63;;
52742;SDS011;55583;53.012;6.556;2022-07-21T04:06:56;48.90;;;28.27;;
52742;SDS011;55583;53.012;6.556;2022-07-21T04:09:22;71.00;;;34.55;;
52742;SDS011;55583;53.012;6.556;2022-07-21T04:11:48;81.20;;;35.95;;
52742;SDS011;55583;53.012;6.556;2022-07-21T04:14:13;92.50;;;38.97;;
52742;SDS011;55583;53.012;6.556;2022-07-21T04:16:39;99.07;;;41.30;;
52742;SDS011;55583;53.012;6.556;2022-07-21T04:19:04;68.95;;;35.00;;
52742;SDS011;55583;53.012;6.556;2022-07-21T04:21:30;79.95;;;37.00;;
52742;SDS011;55583;53.012;6.556;2022-07-21T04:23:56;105.18;;;39.55;;
52742;SDS011;55583;53.012;6.556;2022-07-21T04:26:21;75.15;;;39.22;;
52742;SDS011;55583;53.012;6.556;2022-07-21T04:28:47;57.38;;;34.55;;
52742;SDS011;55583;53.012;6.556;2022-07-21T04:31:13;81.30;;;38.50;;
52742;SDS011;55583;53.012;6.556;2022-07-21T04:33:38;98.65;;;45.85;;
52742;SDS011;55583;53.012;6.556;2022-07-21T04:36:04;102.80;;;47.72;;
52742;SDS011;55583;53.012;6.556;2022-07-21T04:38:30;107.45;;;48.53;;
52742;SDS011;55583;53.012;6.556;2022-07-21T04:40:55;111.45;;;48.83;;
52742;SDS011;55583;53.012;6.556;2022-07-21T04:43:21;109.97;;;48.33;;
52742;SDS011;55583;53.012;6.556;2022-07-21T04:45:46;112.38;;;48.38;;
52742;SDS011;55583;53.012;6.556;2022-07-21T04:48:12;103.70;;;50.88;;
52742;SDS011;55583;53.012;6.556;2022-07-21T04:50:38;98.25;;;49.85;;
52742;SDS011;55583;53.012;6.556;2022-07-21T04:53:03;90.57;;;48.83;;
52742;SDS011;55583;53.012;6.556;2022-07-21T04:55:29;76.32;;;45.63;;
52742;SDS011;55583;53.012;6.556;2022-07-21T04:57:55;94.60;;;50.80;;
52742;SDS011;55583;53.012;6.556;2022-07-21T05:00:24;80.63;;;44.65;;
52742;SDS011;55583;53.012;6.556;2022-07-21T05:02:50;106.72;;;50.50;;
52742;SDS011;55583;53.012;6.556;2022-07-21T05:05:17;80.15;;;47.03;;
52742;SDS011;55583;53.012;6.556;2022-07-21T05:07:43;82.68;;;46.20;;
52742;SDS011;55583;53.012;6.556;2022-07-21T05:10:10;76.13;;;46.28;;
52742;SDS011;55583;53.012;6.556;2022-07-21T05:12:37;88.40;;;49.47;;
52742;SDS011;55583;53.012;6.556;2022-07-21T05:15:04;77.90;;;49.53;;
52742;SDS011;55583;53.012;6.556;2022-07-21T05:17:31;80.38;;;48.75;;
52742;SDS011;55583;53.012;6.556;2022-07-21T05:19:56;73.72;;;46.83;;
52742;SDS011;55583;53.012;6.556;2022-07-21T05:22:24;88.88;;;48.78;;
52742;SDS011;55583;53.012;6.556;2022-07-21T05:24:49;88.57;;;52.90;;
52742;SDS011;55583;53.012;6.556;2022-07-21T05:27:15;76.45;;;47.47;;
52742;SDS011;55583;53.012;6.556;2022-07-21T05:29:41;79.90;;;50.40;;
52742;SDS011;55583;53.012;6.556;2022-07-21T05:32:06;77.85;;;50.35;;
52742;SDS011;55583;53.012;6.556;2022-07-21T05:34:32;78.75;;;49.70;;
52742;SDS011;55583;53.012;6.556;2022-07-21T05:36:58;82.40;;;51.55;;
52742;SDS011;55583;53.012;6.556;2022-07-21T05:39:24;70.93;;;46.65;;
52742;SDS011;55583;53.012;6.556;2022-07-21T05:41:49;80.75;;;51.83;;
52742;SDS011;55583;53.012;6.556;2022-07-21T05:44:15;76.00;;;51.38;;
52742;SDS011;55583;53.012;6.556;2022-07-21T05:46:40;72.68;;;47.25;;
52742;SDS011;55583;53.012;6.556;2022-07-21T05:49:06;75.00;;;50.30;;
52742;SDS011;55583;53.012;6.556;2022-07-21T05:51:31;60.78;;;42.90;;
52742;SDS011;55583;53.012;6.556;2022-07-21T05:53:57;57.40;;;42.40;;
52742;SDS011;55583;53.012;6.556;2022-07-21T05:56:23;62.85;;;44.55;;
52742;SDS011;55583;53.012;6.556;2022-07-21T05:58:48;63.83;;;43.30;;
52742;SDS011;55583;53.012;6.556;2022-07-21T06:01:14;54.58;;;41.90;;
52742;SDS011;55583;53.012;6.556;2022-07-21T06:03:42;58.95;;;42.83;;
52742;SDS011;55583;53.012;6.556;2022-07-21T06:06:15;57.20;;;41.47;;
52742;SDS011;55583;53.012;6.556;2022-07-21T06:08:43;58.50;;;42.50;;
52742;SDS011;55583;53.012;6.556;2022-07-21T06:11:11;52.65;;;39.47;;
52742;SDS011;55583;53.012;6.556;2022-07-21T06:13:38;60.38;;;43.03;;
52742;SDS011;55583;53.012;6.556;2022-07-21T06:16:03;54.10;;;42.70;;
52742;SDS011;55583;53.012;6.556;2022-07-21T06:18:30;49.42;;;40.65;;
52742;SDS011;55583;53.012;6.556;2022-07-21T06:20:55;51.80;;;41.70;;
52742;SDS011;55583;53.012;6.556;2022-07-21T06:23:22;53.45;;;41.17;;
52742;SDS011;55583;53.012;6.556;2022-07-21T06:25:48;51.60;;;41.15;;
52742;SDS011;55583;53.012;6.556;2022-07-21T06:28:15;50.05;;;39.40;;
52742;SDS011;55583;53.012;6.556;2022-07-21T06:30:41;49.53;;;37.72;;
52742;SDS011;55583;53.012;6.556;2022-07-21T06:33:06;46.50;;;35.78;;
52742;SDS011;55583;53.012;6.556;2022-07-21T06:35:32;44.53;;;35.97;;
52742;SDS011;55583;53.012;6.556;2022-07-21T06:37:57;46.58;;;35.38;;
52742;SDS011;55583;53.012;6.556;2022-07-21T06:40:23;43.35;;;34.95;;
52742;SDS011;55583;53.012;6.556;2022-07-21T06:42:49;50.03;;;37.60;;
52742;SDS011;55583;53.012;6.556;2022-07-21T06:45:15;40.53;;;33.92;;
52742;SDS011;55583;53.012;6.556;2022-07-21T06:47:40;44.63;;;34.10;;
52742;SDS011;55583;53.012;6.556;2022-07-21T06:50:06;41.22;;;34.92;;
52742;SDS011;55583;53.012;6.556;2022-07-21T06:52:33;43.42;;;34.30;;
52742;SDS011;55583;53.012;6.556;2022-07-21T06:54:59;44.83;;;34.75;;
52742;SDS011;55583;53.012;6.556;2022-07-21T06:57:25;45.42;;;34.55;;
52742;SDS011;55583;53.012;6.556;2022-07-21T06:59:51;41.35;;;36.85;;
52742;SDS011;55583;53.012;6.556;2022-07-21T07:02:16;42.67;;;35.25;;
52742;SDS011;55583;53.012;6.556;2022-07-21T07:04:42;44.83;;;34.88;;
52742;SDS011;55583;53.012;6.556;2022-07-21T07:07:10;43.50;;;34.92;;
52742;SDS011;55583;53.012;6.556;2022-07-21T07:09:36;48.28;;;37.05;;
52742;SDS011;55583;53.012;6.556;2022-07-21T07:12:02;50.50;;;36.60;;
52742;SDS011;55583;53.012;6.556;2022-07-21T07:14:32;45.78;;;36.42;;
52742;SDS011;55583;53.012;6.556;2022-07-21T07:16:59;42.28;;;35.25;;
52742;SDS011;55583;53.012;6.556;2022-07-21T07:19:25;42.22;;;33.53;;
52742;SDS011;55583;53.012;6.556;2022-07-21T07:21:51;42.65;;;35.00;;
52742;SDS011;55583;53.012;6.556;2022-07-21T07:24:17;42.70;;;34.15;;
52742;SDS011;55583;53.012;6.556;2022-07-21T07:26:42;41.83;;;35.95;;
52742;SDS011;55583;53.012;6.556;2022-07-21T07:29:08;39.03;;;34.67;;
52742;SDS011;55583;53.012;6.556;2022-07-21T07:31:34;37.10;;;31.63;;
52742;SDS011;55583;53.012;6.556;2022-07-21T07:34:00;41.35;;;35.15;;
52742;SDS011;55583;53.012;6.556;2022-07-21T07:36:26;41.80;;;36.58;;
52742;SDS011;55583;53.012;6.556;2022-07-21T07:38:53;38.90;;;34.65;;
52742;SDS011;55583;53.012;6.556;2022-07-21T07:41:21;39.30;;;35.28;;
52742;SDS011;55583;53.012;6.556;2022-07-21T07:43:47;41.75;;;34.28;;
52742;SDS011;55583;53.012;6.556;2022-07-21T07:46:14;39.10;;;34.33;;
52742;SDS011;55583;53.012;6.556;2022-07-21T07:48:40;39.88;;;34.40;;
52742;SDS011;55583;53.012;6.556;2022-07-21T07:51:07;38.17;;;34.00;;
52742;SDS011;55583;53.012;6.556;2022-07-21T07:53:33;38.65;;;34.50;;
52742;SDS011;55583;53.012;6.556;2022-07-21T07:55:58;39.15;;;34.63;;
52742;SDS011;55583;53.012;6.556;2022-07-21T07:58:24;37.17;;;31.65;;
52742;SDS011;55583;53.012;6.556;2022-07-21T08:00:50;37.97;;;32.22;;
52742;SDS011;55583;53.012;6.556;2022-07-21T08:03:16;37.75;;;33.58;;
52742;SDS011;55583;53.012;6.556;2022-07-21T08:05:42;43.38;;;37.15;;
52742;SDS011;55583;53.012;6.556;2022-07-21T08:08:07;37.72;;;33.58;;
52742;SDS011;55583;53.012;6.556;2022-07-21T08:10:33;39.38;;;31.83;;
52742;SDS011;55583;53.012;6.556;2022-07-21T08:12:59;36.40;;;31.05;;
52742;SDS011;55583;53.012;6.556;2022-07-21T08:15:24;34.22;;;30.58;;
52742;SDS011;55583;53.012;6.556;2022-07-21T08:17:50;36.80;;;31.63;;
52742;SDS011;55583;53.012;6.556;2022-07-21T08:20:16;35.97;;;30.58;;
52742;SDS011;55583;53.012;6.556;2022-07-21T08:22:41;36.97;;;31.05;;
52742;SDS011;55583;53.012;6.556;2022-07-21T08:25:07;36.00;;;32.30;;
52742;SDS011;55583;53.012;6.556;2022-07-21T08:27:33;38.83;;;33.15;;
52742;SDS011;55583;53.012;6.556;2022-07-21T08:29:58;36.40;;;31.27;;
52742;SDS011;55583;53.012;6.556;2022-07-21T08:32:24;36.33;;;32.08;;
52742;SDS011;55583;53.012;6.556;2022-07-21T08:34:49;38.33;;;33.05;;
52742;SDS011;55583;53.012;6.556;2022-07-21T08:37:15;44.65;;;34.83;;
52742;SDS011;55583;53.012;6.556;2022-07-21T08:39:43;38.95;;;34.67;;
52742;SDS011;55583;53.012;6.556;2022-07-21T08:42:09;39.65;;;33.95;;
52742;SDS011;55583;53.012;6.556;2022-07-21T08:44:37;43.80;;;35.30;;
52742;SDS011;55583;53.012;6.556;2022-07-21T08:47:03;35.75;;;31.95;;
52742;SDS011;55583;53.012;6.556;2022-07-21T08:49:30;38.90;;;32.92;;
52742;SDS011;55583;53.012;6.556;2022-07-21T08:51:58;40.22;;;34.70;;
52742;SDS011;55583;53.012;6.556;2022-07-21T08:54:24;38.55;;;32.25;;
52742;SDS011;55583;53.012;6.556;2022-07-21T08:56:49;37.25;;;29.52;;
52742;SDS011;55583;53.012;6.556;2022-07-21T08:59:15;35.92;;;30.88;;
52742;SDS011;55583;53.012;6.556;2022-07-21T09:01:41;33.88;;;29.98;;
52742;SDS011;55583;53.012;6.556;2022-07-21T09:04:23;35.05;;;28.50;;
52742;SDS011;55583;53.012;6.556;2022-07-21T09:06:57;32.17;;;28.67;;
52742;SDS011;55583;53.012;6.556;2022-07-21T09:09:26;34.13;;;28.25;;
52742;SDS011;55583;53.012;6.556;2022-07-21T09:11:53;29.10;;;26.00;;
52742;SDS011;55583;53.012;6.556;2022-07-21T09:14:26;30.13;;;26.80;;
52742;SDS011;55583;53.012;6.556;2022-07-21T09:16:55;29.60;;;26.40;;
52742;SDS011;55583;53.012;6.556;2022-07-21T09:19:29;27.77;;;25.02;;
52742;SDS011;55583;53.012;6.556;2022-07-21T09:22:01;28.00;;;25.02;;
52742;SDS011;55583;53.012;6.556;2022-07-21T09:29:25;30.55;;;24.80;;
52742;SDS011;55583;53.012;6.556;2022-07-21T09:31:57;29.60;;;25.17;;
52742;SDS011;55583;53.012;6.556;2022-07-21T09:34:51;29.25;;;26.17;;
52742;SDS011;55583;53.012;6.556;2022-07-21T09:37:17;30.83;;;26.17;;
52742;SDS011;55583;53.012;6.556;2022-07-21T09:42:12;32.33;;;28.75;;
52742;SDS011;55583;53.012;6.556;2022-07-21T09:44:38;35.58;;;31.60;;
52742;SDS011;55583;53.012;6.556;2022-07-21T09:47:14;37.92;;;31.33;;
52742;SDS011;55583;53.012;6.556;2022-07-21T09:49:41;35.95;;;30.70;;
52742;SDS011;55583;53.012;6.556;2022-07-21T09:52:18;37.20;;;31.75;;
52742;SDS011;55583;53.012;6.556;2022-07-21T09:54:46;35.97;;;31.13;;
52742;SDS011;55583;53.012;6.556;2022-07-21T09:57:12;38.17;;;30.60;;
52742;SDS011;55583;53.012;6.556;2022-07-21T09:59:42;39.90;;;32.28;;
52742;SDS011;55583;53.012;6.556;2022-07-21T10:02:16;38.35;;;32.92;;
52742;SDS011;55583;53.012;6.556;2022-07-21T10:07:08;43.90;;;35.13;;
52742;SDS011;55583;53.012;6.556;2022-07-21T10:09:35;49.10;;;37.78;;
52742;SDS011;55583;53.012;6.556;2022-07-21T10:12:00;43.80;;;36.33;;
52742;SDS011;55583;53.012;6.556;2022-07-21T10:14:26;47.38;;;37.75;;
52742;SDS011;55583;53.012;6.556;2022-07-21T10:16:53;48.30;;;37.70;;
52742;SDS011;55583;53.012;6.556;2022-07-21T10:22:02;45.00;;;38.45;;
52742;SDS011;55583;53.012;6.556;2022-07-21T10:24:34;47.30;;;38.35;;
52742;SDS011;55583;53.012;6.556;2022-07-21T10:27:08;44.50;;;33.90;;
52742;SDS011;55583;53.012;6.556;2022-07-21T10:32:17;45.03;;;34.22;;
52742;SDS011;55583;53.012;6.556;2022-07-21T10:34:54;40.30;;;33.95;;
52742;SDS011;55583;53.012;6.556;2022-07-21T10:40:04;45.53;;;33.33;;
52742;SDS011;55583;53.012;6.556;2022-07-21T10:42:31;44.83;;;31.27;;
52742;SDS011;55583;53.012;6.556;2022-07-21T10:44:56;36.70;;;29.73;;
52742;SDS011;55583;53.012;6.556;2022-07-21T10:47:22;33.90;;;28.83;;
52742;SDS011;55583;53.012;6.556;2022-07-21T10:50:02;38.25;;;29.52;;
52742;SDS011;55583;53.012;6.556;2022-07-21T10:57:37;34.57;;;26.57;;
52742;SDS011;55583;53.012;6.556;2022-07-21T11:00:16;28.98;;;25.17;;
52742;SDS011;55583;53.012;6.556;2022-07-21T11:03:02;32.17;;;24.33;;
52742;SDS011;55583;53.012;6.556;2022-07-21T11:05:37;37.30;;;23.55;;
52742;SDS011;55583;53.012;6.556;2022-07-21T11:08:22;31.77;;;25.55;;
52742;SDS011;55583;53.012;6.556;2022-07-21T11:10:58;35.60;;;24.27;;
52742;SDS011;55583;53.012;6.556;2022-07-21T11:22:04;33.33;;;22.52;;
52742;SDS011;55583;53.012;6.556;2022-07-21T11:24:36;31.08;;;23.02;;
52742;SDS011;55583;53.012;6.556;2022-07-21T11:29:39;33.55;;;26.75;;
52742;SDS011;55583;53.012;6.556;2022-07-21T11:32:06;29.55;;;26.23;;
52742;SDS011;55583;53.012;6.556;2022-07-21T11:34:37;35.03;;;28.30;;
52742;SDS011;55583;53.012;6.556;2022-07-21T11:37:04;35.20;;;25.77;;
52742;SDS011;55583;53.012;6.556;2022-07-21T11:39:29;32.15;;;25.63;;
52742;SDS011;55583;53.012;6.556;2022-07-21T11:42:00;32.10;;;25.23;;
52742;SDS011;55583;53.012;6.556;2022-07-21T11:44:31;34.92;;;24.98;;
52742;SDS011;55583;53.012;6.556;2022-07-21T11:46:58;33.90;;;25.70;;
52742;SDS011;55583;53.012;6.556;2022-07-21T11:49:25;37.83;;;29.23;;
52742;SDS011;55583;53.012;6.556;2022-07-21T11:51:52;28.40;;;25.08;;
52742;SDS011;55583;53.012;6.556;2022-07-21T11:56:49;38.08;;;30.63;;
52742;SDS011;55583;53.012;6.556;2022-07-21T11:59:15;38.53;;;31.02;;
52742;SDS011;55583;53.012;6.556;2022-07-21T12:07:36;40.35;;;30.08;;
52742;SDS011;55583;53.012;6.556;2022-07-21T12:10:05;38.28;;;30.52;;
52742;SDS011;55583;53.012;6.556;2022-07-21T12:12:36;33.67;;;28.08;;
52742;SDS011;55583;53.012;6.556;2022-07-21T12:15:21;33.60;;;27.83;;
52742;SDS011;55583;53.012;6.556;2022-07-21T12:17:53;34.55;;;26.85;;
52742;SDS011;55583;53.012;6.556;2022-07-21T12:22:51;32.20;;;27.55;;
52742;SDS011;55583;53.012;6.556;2022-07-21T12:25:18;34.00;;;27.25;;
52742;SDS011;55583;53.012;6.556;2022-07-21T12:28:02;31.08;;;26.23;;
52742;SDS011;55583;53.012;6.556;2022-07-21T12:30:33;29.13;;;24.38;;
52742;SDS011;55583;53.012;6.556;2022-07-21T12:33:05;32.65;;;26.02;;
52742;SDS011;55583;53.012;6.556;2022-07-21T12:35:33;26.65;;;23.75;;
52742;SDS011;55583;53.012;6.556;2022-07-21T12:38:02;32.20;;;24.35;;
52742;SDS011;55583;53.012;6.556;2022-07-21T12:40:30;29.17;;;24.63;;
52742;SDS011;55583;53.012;6.556;2022-07-21T12:43:08;28.60;;;24.02;;
52742;SDS011;55583;53.012;6.556;2022-07-21T12:48:27;25.30;;;21.10;;
52742;SDS011;55583;53.012;6.556;2022-07-21T12:51:20;27.60;;;20.88;;
52742;SDS011;55583;53.012;6.556;2022-07-21T12:53:47;31.73;;;23.70;;
52742;SDS011;55583;53.012;6.556;2022-07-21T12:56:17;24.75;;;20.90;;
52742;SDS011;55583;53.012;6.556;2022-07-21T12:58:45;14.97;;;12.10;;
52742;SDS011;55583;53.012;6.556;2022-07-21T13:01:12;11.75;;;10.57;;
52742;SDS011;55583;53.012;6.556;2022-07-21T13:03:40;10.38;;;9.40;;
52742;SDS011;55583;53.012;6.556;2022-07-21T13:06:05;10.63;;;8.85;;
52742;SDS011;55583;53.012;6.556;2022-07-21T13:08:32;11.05;;;9.95;;
52742;SDS011;55583;53.012;6.556;2022-07-21T13:10:59;13.38;;;11.98;;
52742;SDS011;55583;53.012;6.556;2022-07-21T13:13:25;12.27;;;10.98;;
52742;SDS011;55583;53.012;6.556;2022-07-21T13:15:52;11.40;;;10.20;;
52742;SDS011;55583;53.012;6.556;2022-07-21T13:18:18;10.93;;;9.82;;
52742;SDS011;55583;53.012;6.556;2022-07-21T13:20:44;10.02;;;8.50;;
52742;SDS011;55583;53.012;6.556;2022-07-21T13:23:10;10.25;;;7.80;;
52742;SDS011;55583;53.012;6.556;2022-07-21T13:25:35;10.25;;;8.93;;
52742;SDS011;55583;53.012;6.556;2022-07-21T13:28:02;9.65;;;8.70;;
52742;SDS011;55583;53.012;6.556;2022-07-21T13:30:28;11.25;;;9.18;;
52742;SDS011;55583;53.012;6.556;2022-07-21T13:32:54;10.82;;;8.73;;
52742;SDS011;55583;53.012;6.556;2022-07-21T13:35:20;8.35;;;7.55;;
52742;SDS011;55583;53.012;6.556;2022-07-21T13:37:45;8.88;;;7.30;;
52742;SDS011;55583;53.012;6.556;2022-07-21T13:40:11;10.00;;;6.88;;
52742;SDS011;55583;53.012;6.556;2022-07-21T13:42:37;8.10;;;7.13;;
52742;SDS011;55583;53.012;6.556;2022-07-21T13:45:02;8.23;;;7.35;;
52742;SDS011;55583;53.012;6.556;2022-07-21T13:47:29;9.65;;;7.22;;
52742;SDS011;55583;53.012;6.556;2022-07-21T13:49:54;9.20;;;7.55;;
52742;SDS011;55583;53.012;6.556;2022-07-21T13:52:20;7.90;;;6.50;;
52742;SDS011;55583;53.012;6.556;2022-07-21T13:54:46;7.30;;;6.53;;
52742;SDS011;55583;53.012;6.556;2022-07-21T13:57:11;7.68;;;6.72;;
52742;SDS011;55583;53.012;6.556;2022-07-21T13:59:37;8.88;;;7.95;;
52742;SDS011;55583;53.012;6.556;2022-07-21T14:02:03;9.30;;;8.40;;
52742;SDS011;55583;53.012;6.556;2022-07-21T14:04:29;10.60;;;9.20;;
52742;SDS011;55583;53.012;6.556;2022-07-21T14:06:54;11.65;;;10.45;;
52742;SDS011;55583;53.012;6.556;2022-07-21T14:09:20;12.75;;;11.45;;
52742;SDS011;55583;53.012;6.556;2022-07-21T14:11:47;15.27;;;13.60;;
52742;SDS011;55583;53.012;6.556;2022-07-21T14:14:13;18.08;;;13.98;;
52742;SDS011;55583;53.012;6.556;2022-07-21T14:16:43;15.00;;;13.25;;
52742;SDS011;55583;53.012;6.556;2022-07-21T14:19:08;14.85;;;11.57;;
52742;SDS011;55583;53.012;6.556;2022-07-21T14:21:34;13.18;;;11.73;;
52742;SDS011;55583;53.012;6.556;2022-07-21T14:24:00;13.45;;;11.82;;
52742;SDS011;55583;53.012;6.556;2022-07-21T14:26:44;14.23;;;11.55;;
52742;SDS011;55583;53.012;6.556;2022-07-21T14:29:09;12.50;;;11.20;;
52742;SDS011;55583;53.012;6.556;2022-07-21T14:31:35;14.95;;;12.52;;
52742;SDS011;55583;53.012;6.556;2022-07-21T14:34:01;13.93;;;12.43;;
52742;SDS011;55583;53.012;6.556;2022-07-21T14:36:26;17.60;;;13.30;;
52742;SDS011;55583;53.012;6.556;2022-07-21T14:38:52;14.05;;;12.25;;
52742;SDS011;55583;53.012;6.556;2022-07-21T14:41:18;15.27;;;11.77;;
52742;SDS011;55583;53.012;6.556;2022-07-21T14:43:44;13.63;;;10.02;;
52742;SDS011;55583;53.012;6.556;2022-07-21T14:46:10;13.25;;;10.05;;
52742;SDS011;55583;53.012;6.556;2022-07-21T14:48:36;13.82;;;10.02;;
52742;SDS011;55583;53.012;6.556;2022-07-21T14:51:01;12.68;;;10.30;;
52742;SDS011;55583;53.012;6.556;2022-07-21T14:53:28;11.55;;;10.45;;
52742;SDS011;55583;53.012;6.556;2022-07-21T14:55:53;12.38;;;10.60;;
52742;SDS011;55583;53.012;6.556;2022-07-21T14:58:19;12.82;;;11.48;;
52742;SDS011;55583;53.012;6.556;2022-07-21T15:00:44;13.02;;;11.68;;
52742;SDS011;55583;53.012;6.556;2022-07-21T15:03:10;12.30;;;11.05;;
52742;SDS011;55583;53.012;6.556;2022-07-21T15:05:35;13.35;;;11.77;;
52742;SDS011;55583;53.012;6.556;2022-07-21T15:08:01;11.82;;;10.68;;
52742;SDS011;55583;53.012;6.556;2022-07-21T15:10:27;12.30;;;10.88;;
52742;SDS011;55583;53.012;6.556;2022-07-21T15:12:52;11.95;;;10.75;;
52742;SDS011;55583;53.012;6.556;2022-07-21T15:15:18;12.70;;;9.65;;
52742;SDS011;55583;53.012;6.556;2022-07-21T15:17:43;11.00;;;8.75;;